De Sui — BSFU — position and weather

sailwx.info

Track history (hours):
 
Tides and Currents Weather Stations Pressure Air Temp Water Temp Dewpoint Dewpoint Depression Visibility Wind Speed Wind Dir Waves Ship Positions

De Sui

Last reported at 2016-May-29 00:16 UTC. Time now 2016-May-29 11:32 UTC.
Position N 23°03' E 113°21'.

Length 65 m; draft 4.5 m.

Type: Towing. MMSI: 413070000.

Date/timePositionNaut miles runAvg speedWind from/ knotsBaromVisibWave heightAir tempDewpointWater temp
2016-May-29 00:16N 23°03' E 113°21'0 0.0
2016-May-28 21:04N 23°03' E 113°21'0 0.0
2016-May-28 18:04N 23°03' E 113°21'0 0.0
2016-May-28 08:22N 23°03' E 113°21'0 0.0
2016-May-28 07:22N 23°03' E 113°21'0 0.0
2016-May-28 03:16N 23°03' E 113°21'0 0.0
2016-May-28 01:04N 23°03' E 113°21'0 0.0
2016-May-27 19:28N 23°03' E 113°21'0 0.0
2016-May-27 18:10N 23°03' E 113°21'0 0.0
2016-May-27 04:10N 23°03' E 113°21'0 0.0
2016-May-26 19:22N 23°03' E 113°21'0 0.0
2016-May-26 13:16N 23°03' E 113°21'0 0.0
2016-May-26 12:28N 23°03' E 113°21'0 0.0
2016-May-26 01:16N 23°03' E 113°21'0 0.0
2016-May-25 23:10N 23°03' E 113°21'0 0.0
2016-May-25 21:22N 23°03' E 113°21'0 0.0
2016-May-25 19:22N 23°03' E 113°21'0 0.0
2016-May-25 18:10N 23°03' E 113°21'0 0.0
2016-May-25 17:16N 23°03' E 113°21'0 0.0
2016-May-25 15:22N 23°03' E 113°21'0 0.0
2016-May-25 11:28N 23°03' E 113°21'0 0.0
2016-May-25 10:22N 23°03' E 113°21'0 0.0
2016-May-25 07:28N 23°03' E 113°21'0 0.0
2016-May-25 04:16N 23°03' E 113°21'0 0.0
2016-May-25 03:10N 23°03' E 113°21'0 0.0
2016-May-25 02:22N 23°03' E 113°21'0 0.0
2016-May-25 01:10N 23°03' E 113°21'0 0.0
2016-May-24 23:22N 23°03' E 113°21'0 0.0
2016-May-24 21:28N 23°03' E 113°21'0 0.0
2016-May-24 09:04N 23°03' E 113°21'0 0.0
2016-May-24 08:28N 23°03' E 113°21'0 0.0
2016-May-24 02:28N 23°03' E 113°21'0 0.0
2016-May-23 19:22N 23°03' E 113°21'0 0.0
2016-May-23 15:10N 23°03' E 113°21'0 0.0
2016-May-23 12:10N 23°03' E 113°21'0 0.0
2016-May-23 10:22N 23°03' E 113°21'0 0.0
2016-May-23 06:10N 23°03' E 113°21'0 0.0
2016-May-23 02:16N 23°03' E 113°21'0 0.0
2016-May-22 23:28N 23°03' E 113°21'0 0.0
2016-May-22 21:28N 23°03' E 113°21'0 0.0
2016-May-22 20:28N 23°03' E 113°21'0 0.0
2016-May-22 13:22N 23°03' E 113°21'0 0.0
2016-May-22 12:28N 23°03' E 113°21'0 0.0
2016-May-22 11:28N 23°03' E 113°21'46 1.6
2016-May-21 06:22N 22°28' E 113°54'0 0.0
2016-May-21 05:16N 22°28' E 113°54'0 0.0
2016-May-21 04:28N 22°28' E 113°54'0 0.0
2016-May-21 03:10N 22°28' E 113°54'0 0.0
2016-May-21 02:28N 22°28' E 113°54'2 0.5
2016-May-20 22:22N 22°28' E 113°52'0 0.0
2016-May-20 20:16N 22°28' E 113°52'0 0.0
2016-May-20 19:16N 22°28' E 113°52'0 0.0
2016-May-20 18:22N 22°28' E 113°52'0 0.0
2016-May-20 17:22N 22°28' E 113°52'0 0.0
2016-May-20 16:28N 22°28' E 113°52'0 0.0
2016-May-20 15:22N 22°28' E 113°52'0 0.0
2016-May-20 14:28N 22°28' E 113°52'0 0.0
2016-May-20 12:10N 22°28' E 113°52'0 0.0
2016-May-20 11:22N 22°28' E 113°52'0 0.0
2016-May-20 09:28N 22°28' E 113°52'0 0.0
2016-May-20 08:28N 22°28' E 113°52'0 0.0
2016-May-20 07:22N 22°28' E 113°52'2 0.5
2016-May-20 04:16N 22°29' E 113°53'0 0.0
2016-May-20 03:28N 22°29' E 113°53'0 0.0
2016-May-20 02:04N 22°29' E 113°53'0 0.0
2016-May-20 01:22N 22°29' E 113°53'0 0.0
2016-May-20 00:16N 22°29' E 113°53'0 0.0
2016-May-19 23:22N 22°29' E 113°53'0 0.0
2016-May-19 22:28N 22°29' E 113°53'0 0.0
2016-May-19 21:28N 22°29' E 113°53'1 0.1
2016-May-19 06:28N 22°28' E 113°52'  
Track history (hours):
 
Tides and Currents Weather Stations Pressure Air Temp Water Temp Dewpoint Dewpoint Depression Visibility Wind Speed Wind Dir Waves Ship Positions

De Sui

Last reported at 2016-May-29 00:16 UTC. Time now 2016-May-29 11:32 UTC.
Position N 23°03' E 113°21'.

Length 65 m; draft 4.5 m.

Type: Towing. MMSI: 413070000.

Date/timePositionNaut miles runAvg speedWind from/ knotsBaromVisibWave heightAir tempDewpointWater temp
2016-May-29 00:16N 23°03' E 113°21'0 0.0
2016-May-28 21:04N 23°03' E 113°21'0 0.0
2016-May-28 18:04N 23°03' E 113°21'0 0.0
2016-May-28 08:22N 23°03' E 113°21'0 0.0
2016-May-28 07:22N 23°03' E 113°21'0 0.0
2016-May-28 03:16N 23°03' E 113°21'0 0.0
2016-May-28 01:04N 23°03' E 113°21'0 0.0
2016-May-27 19:28N 23°03' E 113°21'0 0.0
2016-May-27 18:10N 23°03' E 113°21'0 0.0
2016-May-27 04:10N 23°03' E 113°21'0 0.0
2016-May-26 19:22N 23°03' E 113°21'0 0.0
2016-May-26 13:16N 23°03' E 113°21'0 0.0
2016-May-26 12:28N 23°03' E 113°21'0 0.0
2016-May-26 01:16N 23°03' E 113°21'0 0.0
2016-May-25 23:10N 23°03' E 113°21'0 0.0
2016-May-25 21:22N 23°03' E 113°21'0 0.0
2016-May-25 19:22N 23°03' E 113°21'0 0.0
2016-May-25 18:10N 23°03' E 113°21'0 0.0
2016-May-25 17:16N 23°03' E 113°21'0 0.0
2016-May-25 15:22N 23°03' E 113°21'0 0.0
2016-May-25 11:28N 23°03' E 113°21'0 0.0
2016-May-25 10:22N 23°03' E 113°21'0 0.0
2016-May-25 07:28N 23°03' E 113°21'0 0.0
2016-May-25 04:16N 23°03' E 113°21'0 0.0
2016-May-25 03:10N 23°03' E 113°21'0 0.0
2016-May-25 02:22N 23°03' E 113°21'0 0.0
2016-May-25 01:10N 23°03' E 113°21'0 0.0
2016-May-24 23:22N 23°03' E 113°21'0 0.0
2016-May-24 21:28N 23°03' E 113°21'0 0.0
2016-May-24 09:04N 23°03' E 113°21'0 0.0
2016-May-24 08:28N 23°03' E 113°21'0 0.0
2016-May-24 02:28N 23°03' E 113°21'0 0.0
2016-May-23 19:22N 23°03' E 113°21'0 0.0
2016-May-23 15:10N 23°03' E 113°21'0 0.0
2016-May-23 12:10N 23°03' E 113°21'0 0.0
2016-May-23 10:22N 23°03' E 113°21'0 0.0
2016-May-23 06:10N 23°03' E 113°21'0 0.0
2016-May-23 02:16N 23°03' E 113°21'0 0.0
2016-May-22 23:28N 23°03' E 113°21'0 0.0
2016-May-22 21:28N 23°03' E 113°21'0 0.0
2016-May-22 20:28N 23°03' E 113°21'0 0.0
2016-May-22 13:22N 23°03' E 113°21'0 0.0
2016-May-22 12:28N 23°03' E 113°21'0 0.0
2016-May-22 11:28N 23°03' E 113°21'46 1.6
2016-May-21 06:22N 22°28' E 113°54'0 0.0
2016-May-21 05:16N 22°28' E 113°54'0 0.0
2016-May-21 04:28N 22°28' E 113°54'0 0.0
2016-May-21 03:10N 22°28' E 113°54'0 0.0
2016-May-21 02:28N 22°28' E 113°54'2 0.5
2016-May-20 22:22N 22°28' E 113°52'0 0.0
2016-May-20 20:16N 22°28' E 113°52'0 0.0
2016-May-20 19:16N 22°28' E 113°52'0 0.0
2016-May-20 18:22N 22°28' E 113°52'0 0.0
2016-May-20 17:22N 22°28' E 113°52'0 0.0
2016-May-20 16:28N 22°28' E 113°52'0 0.0
2016-May-20 15:22N 22°28' E 113°52'0 0.0
2016-May-20 14:28N 22°28' E 113°52'0 0.0
2016-May-20 12:10N 22°28' E 113°52'0 0.0
2016-May-20 11:22N 22°28' E 113°52'0 0.0
2016-May-20 09:28N 22°28' E 113°52'0 0.0
2016-May-20 08:28N 22°28' E 113°52'0 0.0
2016-May-20 07:22N 22°28' E 113°52'2 0.5
2016-May-20 04:16N 22°29' E 113°53'0 0.0
2016-May-20 03:28N 22°29' E 113°53'0 0.0
2016-May-20 02:04N 22°29' E 113°53'0 0.0
2016-May-20 01:22N 22°29' E 113°53'0 0.0
2016-May-20 00:16N 22°29' E 113°53'0 0.0
2016-May-19 23:22N 22°29' E 113°53'0 0.0
2016-May-19 22:28N 22°29' E 113°53'0 0.0
2016-May-19 21:28N 22°29' E 113°53'1 0.1
2016-May-19 06:28N 22°28' E 113°52'  

Dump ship's entire track history